sensor_id;sensor_type;location;lat;lon;timestamp;P1;durP1;ratioP1;P2;durP2;ratioP2
59271;SDS011;45043;51.068;7.026;2023-08-12T00:02:04;17.57;;;15.80;;
59271;SDS011;45043;51.068;7.026;2023-08-12T00:05:07;17.83;;;15.97;;
59271;SDS011;45043;51.068;7.026;2023-08-12T00:08:08;16.63;;;14.93;;
59271;SDS011;45043;51.068;7.026;2023-08-12T00:11:10;16.87;;;15.07;;
59271;SDS011;45043;51.068;7.026;2023-08-12T00:14:11;17.63;;;15.73;;
59271;SDS011;45043;51.068;7.026;2023-08-12T00:17:11;16.30;;;14.63;;
59271;SDS011;45043;51.068;7.026;2023-08-12T00:20:13;17.47;;;14.07;;
59271;SDS011;45043;51.068;7.026;2023-08-12T00:23:14;16.67;;;14.87;;
59271;SDS011;45043;51.068;7.026;2023-08-12T00:26:15;16.63;;;15.03;;
59271;SDS011;45043;51.068;7.026;2023-08-12T00:29:16;17.80;;;14.70;;
59271;SDS011;45043;51.068;7.026;2023-08-12T00:32:17;16.47;;;14.77;;
59271;SDS011;45043;51.068;7.026;2023-08-12T00:35:19;15.47;;;13.87;;
59271;SDS011;45043;51.068;7.026;2023-08-12T00:38:20;16.87;;;14.00;;
59271;SDS011;45043;51.068;7.026;2023-08-12T00:41:22;13.97;;;12.40;;
59271;SDS011;45043;51.068;7.026;2023-08-12T00:44:26;14.43;;;12.80;;
59271;SDS011;45043;51.068;7.026;2023-08-12T00:47:28;14.70;;;12.37;;
59271;SDS011;45043;51.068;7.026;2023-08-12T00:50:31;13.27;;;11.93;;
59271;SDS011;45043;51.068;7.026;2023-08-12T00:53:32;12.13;;;10.87;;
59271;SDS011;45043;51.068;7.026;2023-08-12T00:56:33;13.43;;;11.87;;
59271;SDS011;45043;51.068;7.026;2023-08-12T00:59:35;13.47;;;12.10;;
59271;SDS011;45043;51.068;7.026;2023-08-12T01:02:41;13.90;;;12.50;;
59271;SDS011;45043;51.068;7.026;2023-08-12T01:05:48;12.97;;;11.70;;
59271;SDS011;45043;51.068;7.026;2023-08-12T01:08:49;13.53;;;12.23;;
59271;SDS011;45043;51.068;7.026;2023-08-12T01:11:55;13.20;;;11.80;;
59271;SDS011;45043;51.068;7.026;2023-08-12T01:15:10;14.13;;;12.60;;
59271;SDS011;45043;51.068;7.026;2023-08-12T01:18:17;11.33;;;10.33;;
59271;SDS011;45043;51.068;7.026;2023-08-12T01:21:18;13.60;;;12.20;;
59271;SDS011;45043;51.068;7.026;2023-08-12T01:24:22;11.87;;;10.60;;
59271;SDS011;45043;51.068;7.026;2023-08-12T01:27:25;14.53;;;12.80;;
59271;SDS011;45043;51.068;7.026;2023-08-12T01:30:26;14.57;;;11.50;;
59271;SDS011;45043;51.068;7.026;2023-08-12T01:36:39;15.90;;;14.30;;
59271;SDS011;45043;51.068;7.026;2023-08-12T01:39:45;16.30;;;14.60;;
59271;SDS011;45043;51.068;7.026;2023-08-12T01:42:47;17.37;;;15.67;;
59271;SDS011;45043;51.068;7.026;2023-08-12T01:45:49;17.20;;;15.50;;
59271;SDS011;45043;51.068;7.026;2023-08-12T01:48:51;16.27;;;14.77;;
59271;SDS011;45043;51.068;7.026;2023-08-12T01:51:52;15.00;;;13.50;;
59271;SDS011;45043;51.068;7.026;2023-08-12T01:54:53;15.83;;;12.57;;
59271;SDS011;45043;51.068;7.026;2023-08-12T01:57:54;13.70;;;12.47;;
59271;SDS011;45043;51.068;7.026;2023-08-12T02:00:55;12.53;;;11.23;;
59271;SDS011;45043;51.068;7.026;2023-08-12T02:03:56;16.00;;;13.30;;
59271;SDS011;45043;51.068;7.026;2023-08-12T02:06:57;13.20;;;11.80;;
59271;SDS011;45043;51.068;7.026;2023-08-12T02:09:58;14.50;;;11.80;;
59271;SDS011;45043;51.068;7.026;2023-08-12T02:12:59;12.13;;;10.80;;
59271;SDS011;45043;51.068;7.026;2023-08-12T02:16:00;13.27;;;10.77;;
59271;SDS011;45043;51.068;7.026;2023-08-12T02:19:01;11.97;;;9.83;;
59271;SDS011;45043;51.068;7.026;2023-08-12T02:22:02;11.97;;;9.20;;
59271;SDS011;45043;51.068;7.026;2023-08-12T02:25:03;10.97;;;8.93;;
59271;SDS011;45043;51.068;7.026;2023-08-12T02:28:04;10.73;;;9.17;;
59271;SDS011;45043;51.068;7.026;2023-08-12T02:31:05;9.87;;;8.50;;
59271;SDS011;45043;51.068;7.026;2023-08-12T02:34:24;10.60;;;9.20;;
59271;SDS011;45043;51.068;7.026;2023-08-12T02:37:25;8.50;;;7.70;;
59271;SDS011;45043;51.068;7.026;2023-08-12T02:40:26;8.83;;;7.93;;
59271;SDS011;45043;51.068;7.026;2023-08-12T02:43:27;10.27;;;9.17;;
59271;SDS011;45043;51.068;7.026;2023-08-12T02:46:27;10.43;;;9.00;;
59271;SDS011;45043;51.068;7.026;2023-08-12T02:49:28;10.73;;;9.50;;
59271;SDS011;45043;51.068;7.026;2023-08-12T02:52:29;10.33;;;8.40;;
59271;SDS011;45043;51.068;7.026;2023-08-12T02:55:30;8.93;;;7.53;;
59271;SDS011;45043;51.068;7.026;2023-08-12T02:58:35;8.00;;;6.77;;
59271;SDS011;45043;51.068;7.026;2023-08-12T03:01:40;8.87;;;7.40;;
59271;SDS011;45043;51.068;7.026;2023-08-12T03:04:45;9.77;;;7.33;;
59271;SDS011;45043;51.068;7.026;2023-08-12T03:07:47;13.60;;;8.10;;
59271;SDS011;45043;51.068;7.026;2023-08-12T03:10:48;10.60;;;8.97;;
59271;SDS011;45043;51.068;7.026;2023-08-12T03:13:50;9.13;;;8.23;;
59271;SDS011;45043;51.068;7.026;2023-08-12T03:16:52;8.70;;;7.80;;
59271;SDS011;45043;51.068;7.026;2023-08-12T03:19:53;10.53;;;8.53;;
59271;SDS011;45043;51.068;7.026;2023-08-12T03:22:57;9.47;;;8.50;;
59271;SDS011;45043;51.068;7.026;2023-08-12T03:26:00;10.60;;;9.60;;
59271;SDS011;45043;51.068;7.026;2023-08-12T03:29:01;9.87;;;8.00;;
59271;SDS011;45043;51.068;7.026;2023-08-12T03:32:02;11.60;;;10.30;;
59271;SDS011;45043;51.068;7.026;2023-08-12T03:35:03;9.27;;;8.43;;
59271;SDS011;45043;51.068;7.026;2023-08-12T03:38:05;11.67;;;9.97;;
59271;SDS011;45043;51.068;7.026;2023-08-12T03:41:06;12.17;;;9.80;;
59271;SDS011;45043;51.068;7.026;2023-08-12T03:44:08;10.50;;;9.37;;
59271;SDS011;45043;51.068;7.026;2023-08-12T03:47:09;11.63;;;10.47;;
59271;SDS011;45043;51.068;7.026;2023-08-12T03:50:11;12.50;;;11.30;;
59271;SDS011;45043;51.068;7.026;2023-08-12T03:53:12;11.40;;;10.03;;
59271;SDS011;45043;51.068;7.026;2023-08-12T03:56:14;12.07;;;9.17;;
59271;SDS011;45043;51.068;7.026;2023-08-12T03:59:17;10.17;;;9.17;;
59271;SDS011;45043;51.068;7.026;2023-08-12T04:02:18;9.73;;;8.83;;
59271;SDS011;45043;51.068;7.026;2023-08-12T04:05:19;9.27;;;8.37;;
59271;SDS011;45043;51.068;7.026;2023-08-12T04:08:23;10.27;;;7.70;;
59271;SDS011;45043;51.068;7.026;2023-08-12T04:11:24;8.90;;;8.00;;
59271;SDS011;45043;51.068;7.026;2023-08-12T04:14:25;7.00;;;6.23;;
59271;SDS011;45043;51.068;7.026;2023-08-12T04:17:27;6.00;;;5.47;;
59271;SDS011;45043;51.068;7.026;2023-08-12T04:20:28;7.43;;;6.63;;
59271;SDS011;45043;51.068;7.026;2023-08-12T04:23:29;8.23;;;6.73;;
59271;SDS011;45043;51.068;7.026;2023-08-12T04:26:31;8.30;;;6.83;;
59271;SDS011;45043;51.068;7.026;2023-08-12T04:29:34;8.40;;;7.63;;
59271;SDS011;45043;51.068;7.026;2023-08-12T04:32:36;7.30;;;6.53;;
59271;SDS011;45043;51.068;7.026;2023-08-12T04:35:37;8.10;;;6.30;;
59271;SDS011;45043;51.068;7.026;2023-08-12T04:38:39;9.77;;;8.50;;
59271;SDS011;45043;51.068;7.026;2023-08-12T04:41:42;9.93;;;6.73;;
59271;SDS011;45043;51.068;7.026;2023-08-12T04:44:44;9.67;;;6.77;;
59271;SDS011;45043;51.068;7.026;2023-08-12T04:47:45;8.70;;;7.77;;
59271;SDS011;45043;51.068;7.026;2023-08-12T04:50:49;6.43;;;5.83;;
59271;SDS011;45043;51.068;7.026;2023-08-12T04:53:51;7.10;;;6.37;;
59271;SDS011;45043;51.068;7.026;2023-08-12T04:56:52;7.73;;;6.50;;
59271;SDS011;45043;51.068;7.026;2023-08-12T04:59:54;8.23;;;7.20;;
59271;SDS011;45043;51.068;7.026;2023-08-12T05:02:56;7.97;;;6.23;;
59271;SDS011;45043;51.068;7.026;2023-08-12T05:05:59;8.80;;;6.80;;
59271;SDS011;45043;51.068;7.026;2023-08-12T05:09:01;8.90;;;7.53;;
59271;SDS011;45043;51.068;7.026;2023-08-12T05:12:04;8.17;;;7.47;;
59271;SDS011;45043;51.068;7.026;2023-08-12T05:15:06;8.50;;;7.67;;
59271;SDS011;45043;51.068;7.026;2023-08-12T05:18:07;10.17;;;8.97;;
59271;SDS011;45043;51.068;7.026;2023-08-12T05:21:08;8.03;;;7.23;;
59271;SDS011;45043;51.068;7.026;2023-08-12T05:24:09;7.30;;;6.20;;
59271;SDS011;45043;51.068;7.026;2023-08-12T05:27:11;8.23;;;6.30;;
59271;SDS011;45043;51.068;7.026;2023-08-12T05:30:12;8.80;;;7.90;;
59271;SDS011;45043;51.068;7.026;2023-08-12T05:33:14;9.10;;;7.67;;
59271;SDS011;45043;51.068;7.026;2023-08-12T05:36:14;8.67;;;7.33;;
59271;SDS011;45043;51.068;7.026;2023-08-12T05:39:14;8.43;;;6.40;;
59271;SDS011;45043;51.068;7.026;2023-08-12T05:42:18;8.67;;;7.77;;
59271;SDS011;45043;51.068;7.026;2023-08-12T05:45:19;8.17;;;7.37;;
59271;SDS011;45043;51.068;7.026;2023-08-12T05:48:19;8.60;;;7.77;;
59271;SDS011;45043;51.068;7.026;2023-08-12T05:51:20;7.67;;;6.87;;
59271;SDS011;45043;51.068;7.026;2023-08-12T05:54:22;8.07;;;6.87;;
59271;SDS011;45043;51.068;7.026;2023-08-12T05:57:23;6.30;;;5.70;;
59271;SDS011;45043;51.068;7.026;2023-08-12T06:00:23;6.73;;;6.10;;
59271;SDS011;45043;51.068;7.026;2023-08-12T06:03:24;6.83;;;6.23;;
59271;SDS011;45043;51.068;7.026;2023-08-12T06:06:25;8.37;;;6.80;;
59271;SDS011;45043;51.068;7.026;2023-08-12T06:09:29;8.13;;;7.20;;
59271;SDS011;45043;51.068;7.026;2023-08-12T06:12:30;7.63;;;6.80;;
59271;SDS011;45043;51.068;7.026;2023-08-12T06:15:31;8.57;;;7.67;;
59271;SDS011;45043;51.068;7.026;2023-08-12T06:18:32;7.67;;;6.87;;
59271;SDS011;45043;51.068;7.026;2023-08-12T06:21:33;8.40;;;7.00;;
59271;SDS011;45043;51.068;7.026;2023-08-12T06:24:34;8.23;;;7.43;;
59271;SDS011;45043;51.068;7.026;2023-08-12T06:27:35;7.47;;;6.53;;
59271;SDS011;45043;51.068;7.026;2023-08-12T06:30:36;8.27;;;7.37;;
59271;SDS011;45043;51.068;7.026;2023-08-12T06:33:37;10.13;;;9.23;;
59271;SDS011;45043;51.068;7.026;2023-08-12T06:36:37;9.63;;;8.63;;
59271;SDS011;45043;51.068;7.026;2023-08-12T06:39:38;8.50;;;7.80;;
59271;SDS011;45043;51.068;7.026;2023-08-12T06:42:39;9.67;;;8.20;;
59271;SDS011;45043;51.068;7.026;2023-08-12T06:45:40;11.20;;;10.10;;
59271;SDS011;45043;51.068;7.026;2023-08-12T06:48:42;11.13;;;9.80;;
59271;SDS011;45043;51.068;7.026;2023-08-12T06:51:43;10.10;;;9.10;;
59271;SDS011;45043;51.068;7.026;2023-08-12T06:54:44;8.97;;;8.17;;
59271;SDS011;45043;51.068;7.026;2023-08-12T06:57:45;8.73;;;7.87;;
59271;SDS011;45043;51.068;7.026;2023-08-12T07:00:45;10.37;;;9.37;;
59271;SDS011;45043;51.068;7.026;2023-08-12T07:03:47;8.67;;;7.87;;
59271;SDS011;45043;51.068;7.026;2023-08-12T07:06:48;8.80;;;7.90;;
59271;SDS011;45043;51.068;7.026;2023-08-12T07:09:49;7.33;;;6.63;;
59271;SDS011;45043;51.068;7.026;2023-08-12T07:12:49;6.73;;;6.20;;
59271;SDS011;45043;51.068;7.026;2023-08-12T07:15:49;7.40;;;6.70;;
59271;SDS011;45043;51.068;7.026;2023-08-12T07:18:51;6.47;;;5.87;;
59271;SDS011;45043;51.068;7.026;2023-08-12T07:21:54;6.50;;;5.80;;
59271;SDS011;45043;51.068;7.026;2023-08-12T07:24:55;6.73;;;5.73;;
59271;SDS011;45043;51.068;7.026;2023-08-12T07:27:57;5.77;;;5.27;;
59271;SDS011;45043;51.068;7.026;2023-08-12T07:31:00;5.13;;;4.70;;
59271;SDS011;45043;51.068;7.026;2023-08-12T07:34:02;5.67;;;4.77;;
59271;SDS011;45043;51.068;7.026;2023-08-12T07:37:02;4.77;;;4.37;;
59271;SDS011;45043;51.068;7.026;2023-08-12T07:40:03;6.00;;;4.63;;
59271;SDS011;45043;51.068;7.026;2023-08-12T07:43:04;5.73;;;5.07;;
59271;SDS011;45043;51.068;7.026;2023-08-12T07:46:06;5.83;;;5.27;;
59271;SDS011;45043;51.068;7.026;2023-08-12T07:49:08;5.80;;;5.30;;
59271;SDS011;45043;51.068;7.026;2023-08-12T07:52:09;6.00;;;5.50;;
59271;SDS011;45043;51.068;7.026;2023-08-12T07:55:10;5.97;;;5.37;;
59271;SDS011;45043;51.068;7.026;2023-08-12T07:58:13;5.77;;;5.17;;
59271;SDS011;45043;51.068;7.026;2023-08-12T08:01:13;6.00;;;5.20;;
59271;SDS011;45043;51.068;7.026;2023-08-12T08:04:14;6.57;;;4.90;;
59271;SDS011;45043;51.068;7.026;2023-08-12T08:07:16;4.97;;;4.50;;
59271;SDS011;45043;51.068;7.026;2023-08-12T08:10:17;5.80;;;5.20;;
59271;SDS011;45043;51.068;7.026;2023-08-12T08:13:18;5.63;;;5.03;;
59271;SDS011;45043;51.068;7.026;2023-08-12T08:16:19;5.57;;;4.87;;
59271;SDS011;45043;51.068;7.026;2023-08-12T08:19:20;5.40;;;4.90;;
59271;SDS011;45043;51.068;7.026;2023-08-12T08:22:22;5.60;;;4.87;;
59271;SDS011;45043;51.068;7.026;2023-08-12T08:25:23;6.03;;;5.43;;
59271;SDS011;45043;51.068;7.026;2023-08-12T08:28:25;5.17;;;4.40;;
59271;SDS011;45043;51.068;7.026;2023-08-12T08:31:26;5.63;;;4.90;;
59271;SDS011;45043;51.068;7.026;2023-08-12T08:34:26;6.30;;;5.10;;
59271;SDS011;45043;51.068;7.026;2023-08-12T08:37:27;5.53;;;4.80;;
59271;SDS011;45043;51.068;7.026;2023-08-12T08:40:29;5.63;;;4.10;;
59271;SDS011;45043;51.068;7.026;2023-08-12T08:43:30;4.70;;;4.10;;
59271;SDS011;45043;51.068;7.026;2023-08-12T08:46:33;6.20;;;4.70;;
59271;SDS011;45043;51.068;7.026;2023-08-12T08:49:35;8.93;;;8.13;;
59271;SDS011;45043;51.068;7.026;2023-08-12T08:52:39;6.53;;;4.60;;
59271;SDS011;45043;51.068;7.026;2023-08-12T08:55:40;6.13;;;5.30;;
59271;SDS011;45043;51.068;7.026;2023-08-12T08:58:42;4.07;;;3.67;;
59271;SDS011;45043;51.068;7.026;2023-08-12T09:01:43;6.07;;;4.43;;
59271;SDS011;45043;51.068;7.026;2023-08-12T09:04:47;6.33;;;4.30;;
59271;SDS011;45043;51.068;7.026;2023-08-12T09:07:49;4.30;;;3.77;;
59271;SDS011;45043;51.068;7.026;2023-08-12T09:10:50;4.13;;;3.83;;
59271;SDS011;45043;51.068;7.026;2023-08-12T09:13:52;4.90;;;4.00;;
59271;SDS011;45043;51.068;7.026;2023-08-12T09:16:53;5.03;;;4.17;;
59271;SDS011;45043;51.068;7.026;2023-08-12T09:19:56;4.53;;;3.90;;
59271;SDS011;45043;51.068;7.026;2023-08-12T09:22:57;5.23;;;3.60;;
59271;SDS011;45043;51.068;7.026;2023-08-12T09:25:59;4.90;;;4.40;;
59271;SDS011;45043;51.068;7.026;2023-08-12T09:29:02;4.53;;;3.80;;
59271;SDS011;45043;51.068;7.026;2023-08-12T09:32:20;3.80;;;3.40;;
59271;SDS011;45043;51.068;7.026;2023-08-12T09:35:21;4.20;;;3.67;;
59271;SDS011;45043;51.068;7.026;2023-08-12T09:38:23;5.33;;;4.17;;
59271;SDS011;45043;51.068;7.026;2023-08-12T09:41:24;4.27;;;3.83;;
59271;SDS011;45043;51.068;7.026;2023-08-12T09:44:27;3.83;;;3.47;;
59271;SDS011;45043;51.068;7.026;2023-08-12T09:47:29;4.20;;;3.30;;
59271;SDS011;45043;51.068;7.026;2023-08-12T09:50:30;3.60;;;3.30;;
59271;SDS011;45043;51.068;7.026;2023-08-12T09:53:32;4.10;;;3.60;;
59271;SDS011;45043;51.068;7.026;2023-08-12T09:56:35;3.50;;;3.20;;
59271;SDS011;45043;51.068;7.026;2023-08-12T09:59:38;3.90;;;3.47;;
59271;SDS011;45043;51.068;7.026;2023-08-12T10:02:41;4.53;;;3.23;;
59271;SDS011;45043;51.068;7.026;2023-08-12T10:05:46;4.27;;;3.20;;
59271;SDS011;45043;51.068;7.026;2023-08-12T10:08:48;4.50;;;3.20;;
59271;SDS011;45043;51.068;7.026;2023-08-12T10:11:51;3.50;;;3.20;;
59271;SDS011;45043;51.068;7.026;2023-08-12T10:14:54;4.23;;;2.93;;
59271;SDS011;45043;51.068;7.026;2023-08-12T10:17:55;3.50;;;2.93;;
59271;SDS011;45043;51.068;7.026;2023-08-12T10:20:57;3.10;;;2.80;;
59271;SDS011;45043;51.068;7.026;2023-08-12T10:24:00;3.17;;;2.87;;
59271;SDS011;45043;51.068;7.026;2023-08-12T10:27:03;3.10;;;2.80;;
59271;SDS011;45043;51.068;7.026;2023-08-12T10:30:05;4.13;;;2.83;;
59271;SDS011;45043;51.068;7.026;2023-08-12T10:33:08;4.63;;;2.97;;
59271;SDS011;45043;51.068;7.026;2023-08-12T10:36:10;3.40;;;3.10;;
59271;SDS011;45043;51.068;7.026;2023-08-12T10:39:12;2.93;;;2.67;;
59271;SDS011;45043;51.068;7.026;2023-08-12T10:42:14;4.33;;;3.40;;
59271;SDS011;45043;51.068;7.026;2023-08-12T10:45:49;3.60;;;3.17;;
59271;SDS011;45043;51.068;7.026;2023-08-12T10:48:59;4.70;;;2.87;;
59271;SDS011;45043;51.068;7.026;2023-08-12T10:52:07;4.93;;;3.17;;
59271;SDS011;45043;51.068;7.026;2023-08-12T10:55:27;4.47;;;3.10;;
59271;SDS011;45043;51.068;7.026;2023-08-12T10:59:01;4.17;;;2.90;;
59271;SDS011;45043;51.068;7.026;2023-08-12T11:02:05;3.00;;;2.70;;
59271;SDS011;45043;51.068;7.026;2023-08-12T11:05:09;5.87;;;2.90;;
59271;SDS011;45043;51.068;7.026;2023-08-12T11:08:11;4.90;;;2.90;;
59271;SDS011;45043;51.068;7.026;2023-08-12T11:11:21;3.27;;;2.97;;
59271;SDS011;45043;51.068;7.026;2023-08-12T11:14:25;5.60;;;3.23;;
59271;SDS011;45043;51.068;7.026;2023-08-12T11:17:32;3.50;;;3.20;;
59271;SDS011;45043;51.068;7.026;2023-08-12T11:20:42;5.23;;;3.60;;
59271;SDS011;45043;51.068;7.026;2023-08-12T11:23:43;5.60;;;3.30;;
59271;SDS011;45043;51.068;7.026;2023-08-12T11:26:45;5.17;;;3.67;;
59271;SDS011;45043;51.068;7.026;2023-08-12T11:29:47;5.53;;;4.07;;
59271;SDS011;45043;51.068;7.026;2023-08-12T11:32:51;4.63;;;3.70;;
59271;SDS011;45043;51.068;7.026;2023-08-12T11:35:53;4.83;;;3.90;;
59271;SDS011;45043;51.068;7.026;2023-08-12T11:38:54;4.60;;;3.87;;
59271;SDS011;45043;51.068;7.026;2023-08-12T11:41:57;4.13;;;3.73;;
59271;SDS011;45043;51.068;7.026;2023-08-12T11:44:58;3.93;;;3.57;;
59271;SDS011;45043;51.068;7.026;2023-08-12T11:47:58;6.10;;;3.60;;
59271;SDS011;45043;51.068;7.026;2023-08-12T11:50:59;5.87;;;3.73;;
59271;SDS011;45043;51.068;7.026;2023-08-12T11:54:00;3.70;;;3.30;;
59271;SDS011;45043;51.068;7.026;2023-08-12T11:57:02;5.83;;;3.93;;
59271;SDS011;45043;51.068;7.026;2023-08-12T12:00:08;3.40;;;2.93;;
59271;SDS011;45043;51.068;7.026;2023-08-12T12:03:19;4.07;;;3.27;;
59271;SDS011;45043;51.068;7.026;2023-08-12T12:06:32;2.73;;;2.53;;
59271;SDS011;45043;51.068;7.026;2023-08-12T12:09:36;2.83;;;2.30;;
59271;SDS011;45043;51.068;7.026;2023-08-12T12:12:37;3.10;;;2.00;;
59271;SDS011;45043;51.068;7.026;2023-08-12T12:15:42;2.67;;;2.47;;
59271;SDS011;45043;51.068;7.026;2023-08-12T12:18:43;3.70;;;2.50;;
59271;SDS011;45043;51.068;7.026;2023-08-12T12:21:45;2.73;;;2.40;;
59271;SDS011;45043;51.068;7.026;2023-08-12T12:24:47;4.20;;;2.17;;
59271;SDS011;45043;51.068;7.026;2023-08-12T12:27:48;3.30;;;2.37;;
59271;SDS011;45043;51.068;7.026;2023-08-12T12:30:49;2.47;;;2.27;;
59271;SDS011;45043;51.068;7.026;2023-08-12T12:33:51;3.10;;;2.10;;
59271;SDS011;45043;51.068;7.026;2023-08-12T12:36:52;3.30;;;1.80;;
59271;SDS011;45043;51.068;7.026;2023-08-12T12:39:53;4.50;;;2.27;;
59271;SDS011;45043;51.068;7.026;2023-08-12T12:42:53;3.10;;;1.93;;
59271;SDS011;45043;51.068;7.026;2023-08-12T12:45:54;2.87;;;1.90;;
59271;SDS011;45043;51.068;7.026;2023-08-12T12:48:55;2.67;;;2.03;;
59271;SDS011;45043;51.068;7.026;2023-08-12T12:51:56;3.13;;;2.13;;
59271;SDS011;45043;51.068;7.026;2023-08-12T12:54:57;1.80;;;1.70;;
59271;SDS011;45043;51.068;7.026;2023-08-12T12:58:02;2.70;;;2.03;;
59271;SDS011;45043;51.068;7.026;2023-08-12T13:01:03;2.10;;;2.00;;
59271;SDS011;45043;51.068;7.026;2023-08-12T13:04:05;3.37;;;2.10;;
59271;SDS011;45043;51.068;7.026;2023-08-12T13:07:06;3.80;;;2.20;;
59271;SDS011;45043;51.068;7.026;2023-08-12T13:10:08;2.63;;;2.40;;
59271;SDS011;45043;51.068;7.026;2023-08-12T13:13:09;3.50;;;2.40;;
59271;SDS011;45043;51.068;7.026;2023-08-12T13:16:10;4.90;;;3.40;;
59271;SDS011;45043;51.068;7.026;2023-08-12T13:19:11;3.63;;;2.20;;
59271;SDS011;45043;51.068;7.026;2023-08-12T13:22:12;1.90;;;1.80;;
59271;SDS011;45043;51.068;7.026;2023-08-12T13:25:13;1.37;;;1.27;;
59271;SDS011;45043;51.068;7.026;2023-08-12T13:28:14;1.63;;;1.53;;
59271;SDS011;45043;51.068;7.026;2023-08-12T13:31:15;1.83;;;1.50;;
59271;SDS011;45043;51.068;7.026;2023-08-12T13:34:16;1.40;;;1.30;;
59271;SDS011;45043;51.068;7.026;2023-08-12T13:37:18;1.60;;;1.50;;
59271;SDS011;45043;51.068;7.026;2023-08-12T13:40:19;1.73;;;1.63;;
59271;SDS011;45043;51.068;7.026;2023-08-12T13:43:20;3.70;;;3.40;;
59271;SDS011;45043;51.068;7.026;2023-08-12T13:46:21;2.40;;;2.20;;
59271;SDS011;45043;51.068;7.026;2023-08-12T13:49:22;2.37;;;2.20;;
59271;SDS011;45043;51.068;7.026;2023-08-12T13:52:22;2.60;;;2.20;;
59271;SDS011;45043;51.068;7.026;2023-08-12T13:55:25;2.90;;;2.30;;
59271;SDS011;45043;51.068;7.026;2023-08-12T13:58:26;2.30;;;2.20;;
59271;SDS011;45043;51.068;7.026;2023-08-12T14:01:27;3.03;;;2.60;;
59271;SDS011;45043;51.068;7.026;2023-08-12T14:04:28;2.37;;;2.17;;
59271;SDS011;45043;51.068;7.026;2023-08-12T14:07:29;2.93;;;2.73;;
59271;SDS011;45043;51.068;7.026;2023-08-12T14:10:31;3.00;;;2.80;;
59271;SDS011;45043;51.068;7.026;2023-08-12T14:13:32;2.97;;;2.77;;
59271;SDS011;45043;51.068;7.026;2023-08-12T14:16:35;3.37;;;2.97;;
59271;SDS011;45043;51.068;7.026;2023-08-12T14:19:37;2.73;;;2.53;;
59271;SDS011;45043;51.068;7.026;2023-08-12T14:22:38;2.90;;;2.57;;
59271;SDS011;45043;51.068;7.026;2023-08-12T14:25:39;2.00;;;1.90;;
59271;SDS011;45043;51.068;7.026;2023-08-12T14:28:40;1.30;;;1.30;;
59271;SDS011;45043;51.068;7.026;2023-08-12T14:31:42;1.77;;;1.67;;
59271;SDS011;45043;51.068;7.026;2023-08-12T14:34:44;1.83;;;1.50;;
59271;SDS011;45043;51.068;7.026;2023-08-12T14:37:46;4.67;;;1.70;;
59271;SDS011;45043;51.068;7.026;2023-08-12T14:40:48;2.00;;;1.77;;
59271;SDS011;45043;51.068;7.026;2023-08-12T14:43:48;3.23;;;1.80;;
59271;SDS011;45043;51.068;7.026;2023-08-12T14:46:49;2.37;;;1.80;;
59271;SDS011;45043;51.068;7.026;2023-08-12T14:49:50;1.73;;;1.60;;
59271;SDS011;45043;51.068;7.026;2023-08-12T14:52:53;1.40;;;1.30;;
59271;SDS011;45043;51.068;7.026;2023-08-12T14:55:55;1.60;;;1.50;;
59271;SDS011;45043;51.068;7.026;2023-08-12T14:58:55;1.53;;;1.13;;
59271;SDS011;45043;51.068;7.026;2023-08-12T15:01:56;1.63;;;1.52;;
59271;SDS011;45043;51.068;7.026;2023-08-12T15:04:59;1.58;;;1.13;;
59271;SDS011;45043;51.068;7.026;2023-08-12T15:08:00;1.52;;;1.40;;
59271;SDS011;45043;51.068;7.026;2023-08-12T15:11:02;1.98;;;1.80;;
59271;SDS011;45043;51.068;7.026;2023-08-12T15:14:02;1.70;;;1.60;;
59271;SDS011;45043;51.068;7.026;2023-08-12T15:17:03;2.30;;;1.98;;
59271;SDS011;45043;51.068;7.026;2023-08-12T15:20:04;2.00;;;1.80;;
59271;SDS011;45043;51.068;7.026;2023-08-12T15:23:06;1.70;;;1.60;;
59271;SDS011;45043;51.068;7.026;2023-08-12T15:26:07;1.50;;;1.40;;
59271;SDS011;45043;51.068;7.026;2023-08-12T15:29:08;2.88;;;2.13;;
59271;SDS011;45043;51.068;7.026;2023-08-12T15:32:09;1.80;;;1.70;;
59271;SDS011;45043;51.068;7.026;2023-08-12T15:35:10;2.65;;;2.03;;
59271;SDS011;45043;51.068;7.026;2023-08-12T15:38:11;2.90;;;1.73;;
59271;SDS011;45043;51.068;7.026;2023-08-12T15:41:12;3.47;;;2.10;;
59271;SDS011;45043;51.068;7.026;2023-08-12T15:44:15;1.98;;;1.75;;
59271;SDS011;45043;51.068;7.026;2023-08-12T15:47:15;2.40;;;2.10;;
59271;SDS011;45043;51.068;7.026;2023-08-12T15:50:16;2.63;;;2.40;;
59271;SDS011;45043;51.068;7.026;2023-08-12T15:53:17;2.47;;;1.95;;
59271;SDS011;45043;51.068;7.026;2023-08-12T15:56:18;2.72;;;2.13;;
59271;SDS011;45043;51.068;7.026;2023-08-12T15:59:19;2.20;;;2.00;;
59271;SDS011;45043;51.068;7.026;2023-08-12T16:02:20;5.63;;;2.00;;
59271;SDS011;45043;51.068;7.026;2023-08-12T16:05:21;3.85;;;2.10;;
59271;SDS011;45043;51.068;7.026;2023-08-12T16:08:22;2.38;;;2.10;;
59271;SDS011;45043;51.068;7.026;2023-08-12T16:11:23;4.00;;;3.60;;
59271;SDS011;45043;51.068;7.026;2023-08-12T16:14:24;4.10;;;3.90;;
59271;SDS011;45043;51.068;7.026;2023-08-12T16:17:26;4.78;;;4.38;;
59271;SDS011;45043;51.068;7.026;2023-08-12T16:20:27;4.35;;;4.05;;
59271;SDS011;45043;51.068;7.026;2023-08-12T16:23:28;2.78;;;1.83;;
59271;SDS011;45043;51.068;7.026;2023-08-12T16:26:32;4.25;;;3.95;;
59271;SDS011;45043;51.068;7.026;2023-08-12T16:29:33;4.30;;;3.90;;
59271;SDS011;45043;51.068;7.026;2023-08-12T16:32:34;4.63;;;4.22;;
59271;SDS011;45043;51.068;7.026;2023-08-12T16:35:35;2.88;;;2.67;;
59271;SDS011;45043;51.068;7.026;2023-08-12T16:38:36;3.92;;;1.80;;
59271;SDS011;45043;51.068;7.026;2023-08-12T16:41:37;4.32;;;2.75;;
59271;SDS011;45043;51.068;7.026;2023-08-12T16:44:38;3.88;;;3.67;;
59271;SDS011;45043;51.068;7.026;2023-08-12T16:47:39;2.38;;;1.95;;
59271;SDS011;45043;51.068;7.026;2023-08-12T16:50:40;2.63;;;2.42;;
59271;SDS011;45043;51.068;7.026;2023-08-12T16:53:41;3.25;;;2.63;;
59271;SDS011;45043;51.068;7.026;2023-08-12T16:56:45;3.05;;;2.72;;
59271;SDS011;45043;51.068;7.026;2023-08-12T16:59:46;2.97;;;2.08;;
59271;SDS011;45043;51.068;7.026;2023-08-12T17:02:47;4.00;;;3.60;;
59271;SDS011;45043;51.068;7.026;2023-08-12T17:05:48;3.65;;;3.35;;
59271;SDS011;45043;51.068;7.026;2023-08-12T17:08:49;4.00;;;3.70;;
59271;SDS011;45043;51.068;7.026;2023-08-12T17:11:50;3.92;;;2.45;;
59271;SDS011;45043;51.068;7.026;2023-08-12T17:14:51;2.95;;;2.10;;
59271;SDS011;45043;51.068;7.026;2023-08-12T17:17:52;3.00;;;2.40;;
59271;SDS011;45043;51.068;7.026;2023-08-12T17:20:53;4.72;;;3.72;;
59271;SDS011;45043;51.068;7.026;2023-08-12T17:23:53;4.13;;;2.85;;
59271;SDS011;45043;51.068;7.026;2023-08-12T17:26:55;3.70;;;2.40;;
59271;SDS011;45043;51.068;7.026;2023-08-12T17:29:56;3.35;;;2.38;;
59271;SDS011;45043;51.068;7.026;2023-08-12T17:32:58;3.75;;;2.90;;
59271;SDS011;45043;51.068;7.026;2023-08-12T17:35:59;3.35;;;2.13;;
59271;SDS011;45043;51.068;7.026;2023-08-12T17:38:59;3.00;;;2.10;;
59271;SDS011;45043;51.068;7.026;2023-08-12T17:42:00;4.87;;;2.27;;
59271;SDS011;45043;51.068;7.026;2023-08-12T17:45:01;4.07;;;2.30;;
59271;SDS011;45043;51.068;7.026;2023-08-12T17:48:03;3.13;;;2.30;;
59271;SDS011;45043;51.068;7.026;2023-08-12T17:51:04;3.93;;;2.43;;
59271;SDS011;45043;51.068;7.026;2023-08-12T17:54:08;3.43;;;2.50;;
59271;SDS011;45043;51.068;7.026;2023-08-12T17:57:08;3.57;;;2.20;;
59271;SDS011;45043;51.068;7.026;2023-08-12T18:00:10;3.67;;;2.33;;
59271;SDS011;45043;51.068;7.026;2023-08-12T18:03:16;2.93;;;2.33;;
59271;SDS011;45043;51.068;7.026;2023-08-12T18:06:17;4.53;;;2.90;;
59271;SDS011;45043;51.068;7.026;2023-08-12T18:09:18;4.27;;;2.87;;
59271;SDS011;45043;51.068;7.026;2023-08-12T18:12:19;4.30;;;3.43;;
59271;SDS011;45043;51.068;7.026;2023-08-12T18:15:19;5.85;;;2.88;;